Time;durP1;ratioP1;P1;durP2;ratioP2;P2;SDS_P1;SDS_P2;PMS_P1;PMS_P2;Temp;Humidity;BMP_temperature;BMP_pressure;BME280_temperature;BME280_humidity;BME280_pressure;Samples;Min_cycle;Max_cycle;Signal;HPM_P1;HPM_P2
2021/10/25 00:02:15;;;;;;;12.60;7.72;;;;;;;;;;5073110;28;20040;-84
2021/10/25 00:04:41;;;;;;;12.95;7.85;;;;;;;;;;5093832;28;20545;-82
2021/10/25 00:07:07;;;;;;;20.08;8.50;;;;;;;;;;5079350;28;20017;-80
2021/10/25 00:09:33;;;;;;;13.77;8.45;;;5.00;99.90;;;;;;5077434;28;20406;-85
2021/10/25 00:11:59;;;;;;;13.85;8.57;;;5.00;99.90;;;;;;5068820;28;20029;-85
2021/10/25 00:14:26;;;;;;;14.07;8.40;;;5.10;99.90;;;;;;5073667;28;20025;-83
2021/10/25 00:16:52;;;;;;;15.90;10.32;;;6.10;99.90;;;;;;5074082;28;20025;-86
2021/10/25 00:19:18;;;;;;;17.98;9.48;;;5.00;99.90;;;;;;5082870;28;20032;-85
2021/10/25 00:21:44;;;;;;;16.65;9.07;;;4.90;99.90;;;;;;5083819;28;20092;-86
2021/10/25 00:24:10;;;;;;;16.75;10.02;;;5.00;99.90;;;;;;5076212;28;20491;-87
2021/10/25 00:26:35;;;;;;;15.68;9.52;;;4.90;99.90;;;;;;5097310;28;20032;-86
2021/10/25 00:29:01;;;;;;;13.23;9.05;;;8.60;99.90;;;;;;5080411;28;20192;-86
2021/10/25 00:31:27;;;;;;;13.40;8.85;;;;;;;;;;5091853;28;20027;-82
2021/10/25 00:33:53;;;;;;;17.83;9.63;;;4.90;99.90;;;;;;5077738;28;20064;-85
2021/10/25 00:36:19;;;;;;;15.25;9.70;;;4.90;99.90;;;;;;5083031;28;20031;-82
2021/10/25 00:38:45;;;;;;;17.52;10.07;;;;;;;;;;5072392;28;20036;-87
2021/10/25 00:41:11;;;;;;;15.15;8.70;;;4.80;99.90;;;;;;5081362;28;20028;-89
2021/10/25 00:43:37;;;;;;;16.85;9.68;;;;;;;;;;5079480;28;20028;-87
2021/10/25 00:46:06;;;;;;;18.90;8.98;;;;;;;;;;5086292;28;20024;-88
2021/10/25 00:48:33;;;;;;;14.10;9.27;;;4.50;99.90;;;;;;5073377;28;20083;-88
2021/10/25 00:50:59;;;;;;;16.60;9.65;;;;;;;;;;5076419;28;20393;-88
2021/10/25 00:53:25;;;;;;;15.55;9.68;;;4.70;99.90;;;;;;5074235;28;20029;-87
2021/10/25 00:55:51;;;;;;;17.27;9.35;;;6.80;99.90;;;;;;5071797;28;20036;-87
2021/10/25 00:58:17;;;;;;;16.27;9.40;;;4.70;99.90;;;;;;5087821;28;20028;-86
2021/10/25 01:00:43;;;;;;;14.57;9.32;;;4.70;99.90;;;;;;5077017;28;20116;-89
2021/10/25 01:03:09;;;;;;;15.40;9.00;;;5.80;99.90;;;;;;5078224;28;20074;-88
2021/10/25 01:05:35;;;;;;;18.52;9.52;;;5.60;99.90;;;;;;5082481;28;20035;-88
2021/10/25 01:08:03;;;;;;;17.10;9.15;;;4.60;99.90;;;;;;5068550;28;20101;-84
2021/10/25 01:10:29;;;;;;;15.93;8.77;;;;;;;;;;5072894;28;20482;-87
2021/10/25 01:12:57;;;;;;;15.25;8.50;;;4.60;99.90;;;;;;5090439;28;20027;-87
2021/10/25 01:15:23;;;;;;;15.52;8.85;;;;;;;;;;5069838;28;20470;-84
2021/10/25 01:17:53;;;;;;;17.42;9.27;;;4.60;99.90;;;;;;5066655;28;20033;-87
2021/10/25 01:20:19;;;;;;;14.23;8.27;;;;;;;;;;5073255;28;20071;-87
2021/10/25 01:22:45;;;;;;;14.80;8.40;;;;;;;;;;5073704;28;20044;-84
2021/10/25 01:25:11;;;;;;;14.63;9.25;;;5.40;99.90;;;;;;5069401;28;20029;-85
2021/10/25 01:27:37;;;;;;;17.73;9.40;;;;;;;;;;5087235;28;20150;-81
2021/10/25 01:30:04;;;;;;;14.93;8.52;;;4.50;99.90;;;;;;5077428;28;20033;-85
2021/10/25 01:32:30;;;;;;;16.02;9.85;;;;;;;;;;5087700;28;20393;-86
2021/10/25 01:34:56;;;;;;;16.88;8.98;;;;;;;;;;5072775;28;20021;-88
2021/10/25 01:37:22;;;;;;;17.17;9.73;;;;;;;;;;5072734;28;20099;-83
2021/10/25 01:39:48;;;;;;;21.02;9.65;;;;;;;;;;5085561;28;20298;-85
2021/10/25 01:42:14;;;;;;;14.68;9.25;;;4.40;99.90;;;;;;5067692;28;20498;-85
2021/10/25 01:44:40;;;;;;;16.13;9.10;;;4.40;99.90;;;;;;5068608;28;20030;-82
2021/10/25 01:47:06;;;;;;;14.57;8.25;;;7.00;99.90;;;;;;5091790;28;20033;-86
2021/10/25 01:49:32;;;;;;;15.63;8.65;;;4.30;99.90;;;;;;5069192;28;20033;-86
2021/10/25 01:51:57;;;;;;;16.02;8.85;;;5.60;99.90;;;;;;5093418;28;20127;-84
2021/10/25 01:54:23;;;;;;;14.00;9.23;;;4.40;99.90;;;;;;5075211;28;20040;-84
2021/10/25 01:56:50;;;;;;;16.13;8.93;;;;;;;;;;5097851;28;20115;-86
2021/10/25 01:59:16;;;;;;;14.43;8.85;;;;;;;;;;5075469;28;20032;-86
2021/10/25 02:01:41;;;;;;;14.45;8.70;;;4.30;99.90;;;;;;5085581;28;20033;-84
2021/10/25 02:04:07;;;;;;;13.75;9.07;;;4.30;99.90;;;;;;5079003;28;20060;-84
2021/10/25 02:06:33;;;;;;;17.25;7.97;;;4.30;99.90;;;;;;5084314;28;20409;-83
2021/10/25 02:09:00;;;;;;;15.55;9.18;;;4.90;99.90;;;;;;5082055;28;20024;-85
2021/10/25 02:11:26;;;;;;;16.00;8.70;;;4.30;99.90;;;;;;5092306;28;20115;-82
2021/10/25 02:13:52;;;;;;;17.63;8.93;;;;;;;;;;5078599;28;20028;-82
2021/10/25 02:16:18;;;;;;;15.30;8.35;;;4.20;99.90;;;;;;5072338;28;20025;-82
2021/10/25 02:18:44;;;;;;;14.75;8.77;;;3.80;99.90;;;;;;5077815;28;20120;-85
2021/10/25 02:21:11;;;;;;;16.88;9.65;;;4.60;99.90;;;;;;5078118;28;20040;-80
2021/10/25 02:23:37;;;;;;;17.60;9.70;;;4.20;99.90;;;;;;5069563;28;20025;-82
2021/10/25 02:26:04;;;;;;;14.82;9.90;;;4.10;99.90;;;;;;5074338;28;20035;-84
2021/10/25 02:28:31;;;;;;;15.20;8.80;;;4.10;99.90;;;;;;5077334;28;20087;-82
2021/10/25 02:30:58;;;;;;;16.83;9.25;;;;;;;;;;5077037;28;20033;-82
2021/10/25 02:33:24;;;;;;;14.20;9.30;;;;;;;;;;5094687;28;20039;-83
2021/10/25 02:35:50;;;;;;;15.18;9.45;;;;;;;;;;5093320;28;20115;-82
2021/10/25 02:38:17;;;;;;;15.05;8.75;;;;;;;;;;5081690;28;20070;-84
2021/10/25 02:40:43;;;;;;;15.88;9.40;;;;;;;;;;5086254;28;20040;-85
2021/10/25 02:43:09;;;;;;;17.20;10.38;;;;;;;;;;5079514;28;20036;-82
2021/10/25 02:45:36;;;;;;;15.38;9.68;;;;;;;;;;5078546;28;20028;-87
2021/10/25 02:48:02;;;;;;;15.18;8.82;;;4.10;99.90;;;;;;5089067;28;20101;-83
2021/10/25 02:50:29;;;;;;;14.25;9.00;;;;;;;;;;5092543;28;20029;-86
2021/10/25 02:52:55;;;;;;;17.08;9.05;;;;;;;;;;5094830;28;20103;-82
2021/10/25 02:55:21;;;;;;;16.48;9.10;;;4.00;99.90;;;;;;5076398;28;20118;-81
2021/10/25 02:57:47;;;;;;;14.57;9.00;;;;;;;;;;5089189;28;20059;-82
2021/10/25 03:00:15;;;;;;;20.75;9.52;;;3.90;99.90;;;;;;5093115;28;20135;-81
2021/10/25 03:02:44;;;;;;;18.10;10.10;;;3.90;99.90;;;;;;5091448;28;20028;-81
2021/10/25 03:05:10;;;;;;;17.90;9.88;;;;;;;;;;5079087;28;20489;-84
2021/10/25 03:07:36;;;;;;;14.55;10.35;;;;;;;;;;5080457;28;20036;-85
2021/10/25 03:10:04;;;;;;;14.95;9.50;;;3.90;99.90;;;;;;5094640;28;20040;-85
2021/10/25 03:12:30;;;;;;;14.45;8.43;;;4.00;99.90;;;;;;5077502;28;20434;-81
2021/10/25 03:14:58;;;;;;;16.38;9.40;;;4.00;99.90;;;;;;5077772;28;20039;-82
2021/10/25 03:17:25;;;;;;;17.95;9.35;;;;;;;;;;5078717;28;20032;-78
2021/10/25 03:19:51;;;;;;;14.70;8.95;;;4.00;99.90;;;;;;5098818;28;20032;-81
2021/10/25 03:22:17;;;;;;;14.38;8.70;;;6.60;99.90;;;;;;5077045;28;20127;-81
2021/10/25 03:24:43;;;;;;;17.17;9.50;;;7.40;99.90;;;;;;5076078;28;20040;-83
2021/10/25 03:27:09;;;;;;;15.40;9.07;;;3.90;99.90;;;;;;5087521;28;20029;-85
2021/10/25 03:29:34;;;;;;;15.75;9.30;;;3.90;99.90;;;;;;5076996;28;20374;-83
2021/10/25 03:32:00;;;;;;;16.52;9.90;;;3.80;99.90;;;;;;5090039;28;20028;-81
2021/10/25 03:34:27;;;;;;;15.45;9.52;;;3.80;99.90;;;;;;5077791;28;20052;-79
2021/10/25 03:36:53;;;;;;;14.60;9.38;;;3.80;99.90;;;;;;5079375;28;20163;-85
2021/10/25 03:39:23;;;;;;;17.35;9.98;;;4.90;99.90;;;;;;5078865;28;20037;-85
2021/10/25 03:41:50;;;;;;;18.08;10.30;;;3.80;99.90;;;;;;5088058;28;20075;-84
2021/10/25 03:44:21;;;;;;;16.42;9.70;;;5.30;99.90;;;;;;5079013;28;20041;-82
2021/10/25 03:51:48;;;;;;;22.10;10.38;;;3.50;99.90;;;;;;5075118;28;20426;-81
2021/10/25 03:54:39;;;;;;;17.95;10.52;;;;;;;;;;5072124;28;20032;-81
2021/10/25 03:59:56;;;;;;;21.40;11.52;;;3.50;99.90;;;;;;5072845;28;20078;-86
2021/10/25 04:03:21;;;;;;;17.77;11.00;;;3.50;99.90;;;;;;5069401;28;20028;-83
2021/10/25 04:13:36;;;;;;;20.02;11.38;;;3.50;99.90;;;;;;5070911;28;20119;-81
2021/10/25 04:25:26;;;;;;;14.65;8.75;;;3.70;99.90;;;;;;5077275;28;20054;-82
2021/10/25 04:27:26;;;;;;;13.60;9.57;;;3.80;99.90;;;;;;5068179;28;20031;-84
2021/10/25 04:30:00;;;;;;;15.02;8.93;;;3.80;99.90;;;;;;5075277;28;20013;-86
2021/10/25 04:32:26;;;;;;;17.50;9.35;;;3.80;99.90;;;;;;5075952;28;20016;-84
2021/10/25 04:34:51;;;;;;;16.20;8.57;;;3.90;99.90;;;;;;5073819;28;20033;-85
2021/10/25 04:37:17;;;;;;;15.55;8.80;;;;;;;;;;5088583;28;20029;-86
2021/10/25 04:39:43;;;;;;;16.30;8.77;;;;;;;;;;5090343;28;20083;-81
2021/10/25 04:42:09;;;;;;;17.48;10.07;;;;;;;;;;5093691;28;20032;-81
2021/10/25 04:44:35;;;;;;;15.60;9.95;;;;;;;;;;5079933;28;20389;-87
2021/10/25 04:47:02;;;;;;;17.52;9.73;;;3.80;99.90;;;;;;5075465;28;20040;-81
2021/10/25 04:49:28;;;;;;;19.70;10.38;;;3.70;99.90;;;;;;5078280;28;20029;-86
2021/10/25 04:51:53;;;;;;;18.83;10.77;;;3.70;99.90;;;;;;5095314;28;20104;-88
2021/10/25 04:54:20;;;;;;;17.65;9.73;;;;;;;;;;5078688;28;20032;-84
2021/10/25 04:56:46;;;;;;;15.88;10.20;;;;;;;;;;5087136;28;20021;-86
2021/10/25 04:59:11;;;;;;;15.73;10.13;;;3.70;99.90;;;;;;5084906;28;20378;-82
2021/10/25 05:01:37;;;;;;;18.60;9.85;;;;;;;;;;5078534;28;20036;-81
2021/10/25 05:04:03;;;;;;;16.85;10.65;;;;;;;;;;5093347;28;20048;-81
2021/10/25 05:06:29;;;;;;;16.27;9.45;;;;;;;;;;5089020;28;20107;-84
2021/10/25 05:08:55;;;;;;;16.95;10.07;;;;;;;;;;5086022;28;20024;-81
2021/10/25 05:11:21;;;;;;;19.00;10.23;;;;;;;;;;5077452;28;20111;-86
2021/10/25 05:13:47;;;;;;;15.85;10.55;;;;;;;;;;5080496;28;20044;-85
2021/10/25 05:16:13;;;;;;;16.25;9.82;;;;;;;;;;5075108;28;20397;-83
2021/10/25 05:18:39;;;;;;;18.05;10.15;;;;;;;;;;5092577;28;20088;-84
2021/10/25 05:21:06;;;;;;;19.20;10.50;;;;;;;;;;5075615;28;20033;-85
2021/10/25 05:23:32;;;;;;;17.92;10.40;;;;;;;;;;5077441;28;21289;-85
2021/10/25 05:26:00;;;;;;;19.17;10.15;;;;;;;;;;5075047;28;20029;-82
2021/10/25 05:28:27;;;;;;;17.20;10.43;;;;;;;;;;5083167;28;20028;-82
2021/10/25 05:30:53;;;;;;;18.73;10.02;;;;;;;;;;5073702;28;20035;-84
2021/10/25 05:33:19;;;;;;;16.88;9.93;;;;;;;;;;5086698;28;20081;-83
2021/10/25 05:35:45;;;;;;;18.77;10.63;;;3.60;99.90;;;;;;5075340;28;20039;-87
2021/10/25 05:38:12;;;;;;;17.73;10.48;;;3.20;99.90;;;;;;5085083;28;20025;-82
2021/10/25 05:40:39;;;;;;;14.68;8.65;;;3.50;99.90;;;;;;5086795;28;20055;-81
2021/10/25 05:43:06;;;;;;;17.05;9.85;;;3.60;99.90;;;;;;5087699;28;20028;-85
2021/10/25 05:45:32;;;;;;;15.52;10.07;;;3.60;99.90;;;;;;5075366;28;20072;-82
2021/10/25 05:47:58;;;;;;;17.60;9.45;;;3.70;99.90;;;;;;5087927;28;20036;-81
2021/10/25 05:50:24;;;;;;;14.70;8.98;;;;;;;;;;5083917;28;20059;-79
2021/10/25 05:52:50;;;;;;;18.00;9.63;;;3.60;99.90;;;;;;5090836;28;20032;-87
2021/10/25 05:55:21;;;;;;;15.55;9.43;;;4.20;99.90;;;;;;5078925;28;20032;-82
2021/10/25 05:57:48;;;;;;;15.48;9.25;;;3.70;99.90;;;;;;5075044;28;20052;-80
2021/10/25 06:00:15;;;;;;;16.73;9.10;;;6.40;99.90;;;;;;5075752;28;20046;-81
2021/10/25 06:02:51;;;;;;;14.57;9.10;;;;;;;;;;5076862;28;20036;-84
2021/10/25 06:05:16;;;;;;;14.90;9.05;;;5.20;99.90;;;;;;5083627;28;20025;-79
2021/10/25 06:07:42;;;;;;;17.25;9.88;;;3.70;99.90;;;;;;5085776;28;20032;-79
2021/10/25 06:10:11;;;;;;;14.35;9.55;;;3.70;99.90;;;;;;5080650;28;20409;-83
2021/10/25 06:12:41;;;;;;;14.02;8.70;;;;;;;;;;5064537;28;20411;-81
2021/10/25 06:15:11;;;;;;;17.58;9.00;;;3.70;99.90;;;;;;5085449;28;20028;-82
2021/10/25 06:17:50;;;;;;;18.27;8.90;;;3.70;99.90;;;;;;5072887;28;20116;-86
2021/10/25 06:20:17;;;;;;;16.95;8.88;;;3.60;99.90;;;;;;5087900;28;20945;-79
2021/10/25 06:22:43;;;;;;;21.27;9.30;;;3.60;99.90;;;;;;5073092;28;20580;-86
2021/10/25 06:25:13;;;;;;;20.13;10.63;;;3.60;99.90;;;;;;5072925;28;20041;-85
2021/10/25 06:27:39;;;;;;;14.93;8.93;;;3.60;99.90;;;;;;5074156;28;20025;-80
2021/10/25 06:30:05;;;;;;;15.77;9.80;;;3.60;99.90;;;;;;5093332;28;20466;-82
2021/10/25 06:32:31;;;;;;;20.55;10.85;;;3.50;99.90;;;;;;5072390;28;20013;-82
2021/10/25 06:35:00;;;;;;;17.58;10.25;;;3.40;99.90;;;;;;5089412;28;20025;-82
2021/10/25 06:37:32;;;;;;;17.30;10.32;;;3.50;99.90;;;;;;5075607;28;20251;-82
2021/10/25 06:39:58;;;;;;;19.15;10.40;;;6.20;99.90;;;;;;5082598;28;20092;-83
2021/10/25 06:42:26;;;;;;;19.67;10.35;;;3.40;99.90;;;;;;5077130;28;20084;-84
2021/10/25 06:44:54;;;;;;;21.65;10.82;;;3.30;99.90;;;;;;5096910;28;20035;-82
2021/10/25 06:47:21;;;;;;;17.15;9.60;;;3.50;99.90;;;;;;5081863;28;20024;-83
2021/10/25 06:49:47;;;;;;;23.48;12.00;;;3.50;99.90;;;;;;5089402;28;20021;-80
2021/10/25 06:52:13;;;;;;;24.00;11.95;;;3.70;99.90;;;;;;5096222;28;20023;-79
2021/10/25 06:54:39;;;;;;;21.80;13.07;;;4.40;99.90;;;;;;5079371;28;20436;-78
2021/10/25 06:57:04;;;;;;;19.35;9.98;;;3.70;99.90;;;;;;5081856;28;20051;-84
2021/10/25 06:59:30;;;;;;;18.67;10.25;;;3.80;99.90;;;;;;5074044;28;20081;-83
2021/10/25 07:01:57;;;;;;;18.85;10.32;;;3.80;99.90;;;;;;5075350;28;20037;-83
2021/10/25 07:04:22;;;;;;;16.90;9.93;;;4.30;99.90;;;;;;5079464;28;20062;-81
2021/10/25 07:06:49;;;;;;;14.95;9.45;;;3.90;99.90;;;;;;5072566;28;20549;-78
2021/10/25 07:09:16;;;;;;;20.75;10.23;;;3.90;99.90;;;;;;5071253;28;20025;-83
2021/10/25 07:11:44;;;;;;;15.40;9.57;;;4.10;99.90;;;;;;5070017;28;20508;-83
2021/10/25 07:14:11;;;;;;;16.30;9.35;;;4.10;99.90;;;;;;5078929;28;20068;-78
2021/10/25 07:16:42;;;;;;;22.33;9.95;;;4.00;99.90;;;;;;5095626;28;20028;-83
2021/10/25 07:22:29;;;;;;;27.50;11.13;;;5.30;99.90;;;;;;5072476;28;20158;-81
2021/10/25 08:05:53;;;;;;;19.35;11.35;;;5.30;99.90;;;;;;5080748;28;20041;-84
2021/10/25 08:10:48;;;;;;;15.77;11.45;;;5.80;99.90;;;;;;5070970;28;20017;-83
2021/10/25 08:13:16;;;;;;;21.27;12.13;;;5.90;99.90;;;;;;5093347;28;20029;-81
2021/10/25 08:15:45;;;;;;;18.90;12.15;;;8.40;99.90;;;;;;5067670;28;20101;-79
2021/10/25 08:20:57;;;;;;;31.10;12.15;;;6.00;99.90;;;;;;5076417;28;20063;-83
2021/10/25 08:23:23;;;;;;;26.23;12.90;;;6.10;99.90;;;;;;5081556;28;20029;-85
2021/10/25 08:25:48;;;;;;;22.85;12.23;;;6.20;99.90;;;;;;5077518;28;20037;-84
2021/10/25 08:28:15;;;;;;;21.20;12.13;;;7.30;99.90;;;;;;5080942;28;20534;-82
2021/10/25 08:30:41;;;;;;;19.67;11.38;;;6.30;99.90;;;;;;5073208;28;20046;-81
2021/10/25 08:41:10;;;;;;;20.65;11.98;;;7.80;99.90;;;;;;5079994;28;20437;-82
2021/10/25 08:43:37;;;;;;;18.88;11.90;;;6.60;99.90;;;;;;5081597;28;20024;-84
2021/10/25 08:46:05;;;;;;;19.30;11.50;;;6.70;99.90;;;;;;5090823;28;20032;-84
2021/10/25 08:48:32;;;;;;;21.35;11.68;;;6.80;99.90;;;;;;5072309;28;20033;-80
2021/10/25 08:50:58;;;;;;;22.95;12.05;;;6.90;99.90;;;;;;5091175;28;20391;-79
2021/10/25 08:53:24;;;;;;;20.50;12.73;;;7.00;99.90;;;;;;5085795;28;20059;-81
2021/10/25 08:55:51;;;;;;;20.08;12.95;;;8.40;99.90;;;;;;5068260;28;20021;-82
2021/10/25 08:58:17;;;;;;;21.27;11.20;;;7.20;99.90;;;;;;5071438;28;20032;-82
2021/10/25 09:00:50;;;;;;;21.77;12.23;;;7.80;99.90;;;;;;5085980;28;20035;-83
2021/10/25 09:03:18;;;;;;;18.98;11.82;;;7.50;99.90;;;;;;5067487;28;20021;-81
2021/10/25 09:05:53;;;;;;;19.85;11.50;;;7.70;99.90;;;;;;5082835;28;20477;-81
2021/10/25 09:08:19;;;;;;;16.20;10.43;;;8.00;99.90;;;;;;5090153;28;20115;-83
2021/10/25 09:10:46;;;;;;;17.08;10.13;;;8.50;99.90;;;;;;5073643;28;20049;-84
2021/10/25 09:13:23;;;;;;;17.13;10.35;;;9.40;99.90;;;;;;5087283;28;20035;-83
2021/10/25 09:16:00;;;;;;;18.23;10.40;;;9.30;99.90;;;;;;5080969;28;20032;-87
2021/10/25 09:18:31;;;;;;;21.88;9.65;;;9.80;99.90;;;;;;5072726;28;20017;-82
2021/10/25 09:20:59;;;;;;;13.73;8.60;;;10.00;99.90;;;;;;5071716;28;20032;-81
2021/10/25 09:23:30;;;;;;;18.45;9.15;;;10.00;99.90;;;;;;5064745;28;20025;-84
2021/10/25 09:26:03;;;;;;;12.45;7.43;;;10.00;99.90;;;;;;5080611;28;20135;-87
2021/10/25 09:28:38;;;;;;;12.40;6.85;;;10.00;99.90;;;;;;5089780;28;20092;-81
2021/10/25 09:31:12;;;;;;;9.13;5.90;;;9.90;99.90;;;;;;5073264;28;20342;-82
2021/10/25 09:33:42;;;;;;;14.70;6.07;;;9.90;99.90;;;;;;5071685;28;20024;-82
2021/10/25 09:36:18;;;;;;;12.65;5.95;;;10.00;99.90;;;;;;5082548;28;20029;-85
2021/10/25 09:39:03;;;;;;;10.95;5.40;;;10.00;99.90;;;;;;5077771;28;20048;-81
2021/10/25 09:49:59;;;;;;;7.70;4.28;;;10.40;99.90;;;;;;5080965;28;20032;-82
2021/10/25 09:52:39;;;;;;;7.25;4.03;;;10.60;99.90;;;;;;5069320;28;20017;-78
2021/10/25 09:55:09;;;;;;;9.13;4.60;;;10.70;99.90;;;;;;5076069;28;20056;-85
2021/10/25 10:00:14;;;;;;;9.82;5.10;;;10.90;99.90;;;;;;5082749;28;20115;-83
2021/10/25 10:02:41;;;;;;;8.40;4.70;;;10.90;99.90;;;;;;5091839;28;20048;-82
2021/10/25 10:05:10;;;;;;;8.98;4.53;;;11.10;99.90;;;;;;5072301;28;20465;-81
2021/10/25 10:07:36;;;;;;;8.85;4.70;;;11.20;99.90;;;;;;5068267;28;20025;-84
2021/10/25 10:10:06;;;;;;;7.53;4.60;;;11.30;99.90;;;;;;5076908;28;20051;-85
2021/10/25 10:12:33;;;;;;;7.95;4.70;;;11.30;99.90;;;;;;5074253;28;20023;-83
2021/10/25 10:15:01;;;;;;;9.45;5.10;;;11.40;99.90;;;;;;5092291;28;20028;-80
2021/10/25 10:17:31;;;;;;;7.78;4.68;;;11.50;99.90;;;;;;5077029;28;20021;-83
2021/10/25 10:20:01;;;;;;;9.68;4.93;;;11.60;99.90;;;;;;5078181;28;20106;-82
2021/10/25 10:22:28;;;;;;;9.48;5.40;;;11.80;99.90;;;;;;5077965;28;20035;-81
2021/10/25 10:24:55;;;;;;;9.82;4.70;;;11.80;99.90;;;;;;5089443;28;20017;-82
2021/10/25 10:27:23;;;;;;;9.13;5.32;;;12.00;99.90;;;;;;5080188;28;20042;-83
2021/10/25 10:30:00;;;;;;;10.82;5.07;;;12.40;99.90;;;;;;5079731;28;20028;-84
2021/10/25 10:32:30;;;;;;;9.80;4.70;;;13.50;99.90;;;;;;5076238;28;20021;-83
2021/10/25 10:35:00;;;;;;;;;;;14.20;99.90;;;;;;5094158;28;20017;-81
2021/10/25 10:37:28;;;;;;;10.35;4.70;;;13.70;99.90;;;;;;5076680;28;19909;-84
2021/10/25 10:40:06;;;;;;;8.32;4.50;;;12.70;99.90;;;;;;5077331;28;20032;-84
2021/10/25 10:42:37;;;;;;;9.73;4.65;;;12.70;99.90;;;;;;5074877;28;20025;-84
2021/10/25 10:45:12;;;;;;;9.70;4.57;;;12.80;99.90;;;;;;5077617;28;20388;-88
2021/10/25 10:47:53;;;;;;;9.55;4.60;;;13.00;99.90;;;;;;5095703;28;20097;-85
2021/10/25 10:50:25;;;;;;;8.82;4.57;;;13.30;99.90;;;;;;5089686;28;20028;-85
2021/10/25 10:53:07;;;;;;;8.27;4.30;;;13.30;99.90;;;;;;5072108;28;20485;-85
2021/10/25 10:55:39;;;;;;;7.30;4.10;;;13.50;99.90;;;;;;5074366;28;20506;-84
2021/10/25 11:00:50;;;;;;;6.10;4.03;;;13.80;99.90;;;;;;5076425;28;20054;-88
2021/10/25 11:03:24;;;;;;;7.88;3.85;;;13.90;99.90;;;;;;5076256;28;20033;-85
2021/10/25 11:06:02;;;;;;;7.82;4.43;;;14.10;99.90;;;;;;5078807;28;20020;-83
2021/10/25 11:08:40;;;;;;;10.02;5.03;;;14.10;99.90;;;;;;5080406;28;20021;-84
2021/10/25 11:11:14;;;;;;;7.35;4.43;;;14.20;99.90;;;;;;5082504;28;20029;-84
2021/10/25 11:13:47;;;;;;;9.07;4.78;;;14.30;99.90;;;;;;5086261;28;20041;-80
2021/10/25 11:18:48;;;;;;;8.13;4.57;;;14.30;99.90;;;;;;5074751;28;20033;-79
2021/10/25 11:21:24;;;;;;;9.10;4.00;;;14.40;99.90;;;;;;5092390;28;20028;-83
2021/10/25 11:24:06;;;;;;;6.38;4.22;;;14.40;99.90;;;;;;5079791;28;20028;-81
2021/10/25 11:26:41;;;;;;;9.02;4.38;;;14.50;99.90;;;;;;5087220;28;20024;-80
2021/10/25 11:29:12;;;;;;;7.10;4.15;;;14.50;99.90;;;;;;5079134;28;20020;-84
2021/10/25 11:31:44;;;;;;;8.80;4.97;;;14.60;99.90;;;;;;5072254;28;20020;-83
2021/10/25 11:34:16;;;;;;;6.45;3.92;;;14.70;99.90;;;;;;5081907;28;20024;-86
2021/10/25 11:37:11;;;;;;;9.80;4.00;;;14.70;99.90;;;;;;5086737;28;20025;-87
2021/10/25 11:40:07;;;;;;;7.72;4.40;;;14.80;99.90;;;;;;5097277;28;20021;-86
2021/10/25 11:42:39;;;;;;;11.05;4.28;;;14.80;99.90;;;;;;5088711;28;20045;-85
2021/10/25 11:45:05;;;;;;;7.30;3.72;;;14.90;99.90;;;;;;5100601;28;20029;-85
2021/10/25 11:47:46;;;;;;;7.43;4.40;;;14.90;99.90;;;;;;5084027;28;20056;-85
2021/10/25 11:50:18;;;;;;;6.45;4.13;;;15.00;99.90;;;;;;5083848;28;20099;-84
2021/10/25 11:52:59;;;;;;;9.60;5.40;;;16.70;99.90;;;;;;5091310;28;20044;-81
2021/10/25 11:55:28;;;;;;;7.35;4.07;;;15.10;99.90;;;;;;5090035;28;20028;-82
2021/10/25 11:57:57;;;;;;;10.38;5.75;;;14.90;99.90;;;;;;5077961;28;20021;-82
2021/10/25 12:00:30;;;;;;;12.40;5.55;;;15.20;99.90;;;;;;5076753;28;20025;-82
2021/10/25 12:03:03;;;;;;;7.88;4.88;;;15.00;99.90;;;;;;5091754;28;20029;-83
2021/10/25 12:05:29;;;;;;;7.03;4.22;;;15.40;99.90;;;;;;5082220;28;20036;-84
2021/10/25 12:07:56;;;;;;;9.00;4.47;;;15.20;99.90;;;;;;5092650;28;20021;-83
2021/10/25 12:10:24;;;;;;;7.32;4.10;;;17.50;99.90;;;;;;5079445;28;20040;-81
2021/10/25 12:12:51;;;;;;;7.57;3.65;;;15.70;99.90;;;;;;5083310;28;20029;-85
2021/10/25 12:15:19;;;;;;;8.13;4.57;;;15.70;99.90;;;;;;5080454;28;20024;-80
2021/10/25 12:17:46;;;;;;;6.63;3.72;;;16.00;99.80;;;;;;5081826;28;20036;-84
2021/10/25 12:20:21;;;;;;;8.63;4.63;;;16.00;99.30;;;;;;5097871;28;20047;-86
2021/10/25 12:22:57;;;;;;;8.52;4.40;;;16.00;99.40;;;;;;5093904;28;20044;-82
2021/10/25 12:25:23;;;;;;;9.00;3.97;;;;;;;;;;5078023;28;20123;-84
2021/10/25 12:27:58;;;;;;;10.38;4.70;;;;;;;;;;5081267;28;20017;-82
2021/10/25 12:30:24;;;;;;;8.48;4.65;;;15.80;99.30;;;;;;5088911;28;20021;-83
2021/10/25 12:32:54;;;;;;;7.43;4.40;;;15.80;99.80;;;;;;5096443;28;20057;-82
2021/10/25 12:35:43;;;;;;;7.15;3.97;;;15.70;99.90;;;;;;5079206;28;20029;-86
2021/10/25 12:38:12;;;;;;;6.32;3.80;;;15.90;99.60;;;;;;5083181;28;20033;-82
2021/10/25 12:40:43;;;;;;;6.28;3.97;;;16.60;99.80;;;;;;5079329;28;20465;-84
2021/10/25 12:43:10;;;;;;;8.65;4.32;;;15.90;99.90;;;;;;5078304;28;20040;-85
2021/10/25 12:45:41;;;;;;;7.68;4.22;;;15.90;99.90;;;;;;5088140;28;20450;-83
2021/10/25 12:48:09;;;;;;;7.78;4.53;;;15.90;99.80;;;;;;5088745;28;20032;-81
2021/10/25 12:50:37;;;;;;;6.95;4.45;;;15.90;99.60;;;;;;5085393;28;20025;-86
2021/10/25 12:53:08;;;;;;;7.53;4.25;;;16.00;99.60;;;;;;5101908;28;20052;-80
2021/10/25 12:55:35;;;;;;;6.40;4.47;;;16.10;99.50;;;;;;5073902;28;20028;-84
2021/10/25 12:58:01;;;;;;;8.15;4.22;;;16.10;99.40;;;;;;5083384;28;20025;-85
2021/10/25 13:00:28;;;;;;;8.13;4.38;;;16.20;99.40;;;;;;5100355;28;20051;-82
2021/10/25 13:02:55;;;;;;;6.05;4.03;;;16.20;99.60;;;;;;5089282;28;20034;-82
2021/10/25 13:05:22;;;;;;;8.10;4.35;;;16.20;99.30;;;;;;5083822;28;20017;-85
2021/10/25 13:07:57;;;;;;;7.13;4.00;;;16.50;99.20;;;;;;5089119;28;20042;-82
2021/10/25 13:10:24;;;;;;;8.13;4.25;;;16.20;99.00;;;;;;5095879;28;20037;-83
2021/10/25 13:12:51;;;;;;;6.65;4.18;;;16.30;99.10;;;;;;5089259;28;20020;-84
2021/10/25 13:15:17;;;;;;;7.10;3.97;;;16.30;99.00;;;;;;5094360;28;20029;-87
2021/10/25 13:17:43;;;;;;;7.78;4.20;;;16.40;98.40;;;;;;5098207;28;20035;-85
2021/10/25 13:20:11;;;;;;;7.90;4.80;;;16.50;98.30;;;;;;5086318;28;20052;-83
2021/10/25 13:22:37;;;;;;;10.68;3.45;;;16.50;98.30;;;;;;5085134;28;20032;-85
2021/10/25 13:25:04;;;;;;;5.82;3.50;;;16.60;97.90;;;;;;5074698;28;20036;-82
2021/10/25 13:27:30;;;;;;;7.03;3.55;;;;;;;;;;5073638;28;20025;-82
2021/10/25 13:29:55;;;;;;;7.82;3.78;;;16.50;98.00;;;;;;5089769;28;20025;-84
2021/10/25 13:32:24;;;;;;;5.80;3.72;;;16.50;98.40;;;;;;5074946;28;20052;-86
2021/10/25 13:34:50;;;;;;;5.60;3.80;;;16.50;97.80;;;;;;5082012;28;20020;-84
2021/10/25 13:37:16;;;;;;;7.43;3.80;;;;;;;;;;5082459;28;20048;-83
2021/10/25 13:39:42;;;;;;;7.03;3.58;;;16.60;97.50;;;;;;5074274;28;20040;-85
2021/10/25 13:42:08;;;;;;;5.68;3.60;;;14.50;96.60;;;;;;5077438;28;20029;-86
2021/10/25 13:44:33;;;;;;;7.05;4.00;;;16.60;97.40;;;;;;5076216;28;20028;-81
2021/10/25 13:46:59;;;;;;;8.02;4.05;;;16.60;97.10;;;;;;5081522;28;20028;-87
2021/10/25 13:49:25;;;;;;;6.63;3.60;;;18.20;97.80;;;;;;5076283;28;20020;-84
2021/10/25 13:51:51;;;;;;;5.80;3.42;;;16.50;97.90;;;;;;5102243;28;20013;-86
2021/10/25 13:54:16;;;;;;;6.70;3.80;;;16.90;98.40;;;;;;5084929;28;20033;-80
2021/10/25 13:56:43;;;;;;;8.50;3.78;;;;;;;;;;5095234;28;20037;-87
2021/10/25 13:59:09;;;;;;;7.60;3.80;;;;;;;;;;5086469;28;20058;-83
2021/10/25 14:01:35;;;;;;;5.53;3.33;;;;;;;;;;5105936;28;20477;-84
2021/10/25 14:04:01;;;;;;;8.02;3.45;;;16.40;97.20;;;;;;5084623;28;20036;-84
2021/10/25 14:06:31;;;;;;;6.05;3.00;;;16.90;97.60;;;;;;5096484;28;20025;-85
2021/10/25 14:08:58;;;;;;;7.63;3.95;;;16.50;97.50;;;;;;5100694;28;20508;-86
2021/10/25 14:11:28;;;;;;;6.32;3.42;;;16.40;97.70;;;;;;5101241;28;20481;-84
2021/10/25 14:14:10;;;;;;;5.63;3.17;;;16.20;97.60;;;;;;5080958;28;20045;-85
2021/10/25 14:16:49;;;;;;;6.95;3.83;;;17.80;98.20;;;;;;5077310;28;20092;-85
2021/10/25 14:19:15;;;;;;;8.10;4.18;;;16.00;98.00;;;;;;5102988;28;20024;-85
2021/10/25 14:21:40;;;;;;;8.00;4.55;;;15.80;98.60;;;;;;5099648;28;20045;-82
2021/10/25 14:24:08;;;;;;;7.13;4.70;;;15.70;98.80;;;;;;5082590;28;20044;-83
2021/10/25 14:26:35;;;;;;;6.07;3.40;;;;;;;;;;5099347;28;20027;-84
2021/10/25 14:29:01;;;;;;;7.00;4.07;;;15.80;98.60;;;;;;5092498;28;20032;-81
2021/10/25 14:31:27;;;;;;;7.80;4.05;;;15.80;98.90;;;;;;5077814;28;20114;-82
2021/10/25 14:33:54;;;;;;;7.50;4.10;;;17.40;99.80;;;;;;5081043;28;20029;-85
2021/10/25 14:36:22;;;;;;;6.70;4.25;;;15.80;99.20;;;;;;5101036;28;20058;-83
2021/10/25 14:43:46;;;;;;;6.85;4.05;;;15.80;99.30;;;;;;5085809;28;20024;-85
2021/10/25 14:46:19;;;;;;;9.73;4.80;;;16.60;99.80;;;;;;5101908;28;20050;-81
2021/10/25 14:48:53;;;;;;;8.18;4.55;;;;;;;;;;5075160;28;20088;-86
2021/10/25 14:54:18;;;;;;;9.55;4.72;;;15.90;99.40;;;;;;5075909;28;20479;-84
2021/10/25 14:56:44;;;;;;;7.35;4.28;;;17.60;99.90;;;;;;5096118;28;20404;-84
2021/10/25 14:59:09;;;;;;;9.20;5.22;;;15.80;99.60;;;;;;5077804;28;20043;-84